createdAt,value
2024-01-04T00:00:58.926Z,100201.46
2024-01-04T00:03:27.040Z,100207.71
2024-01-04T00:05:54.171Z,100205.63
2024-01-04T00:08:21.214Z,100212.13
2024-01-04T00:10:48.245Z,100214.25
2024-01-04T00:13:15.348Z,100214.83
2024-01-04T00:15:42.661Z,100213.27
2024-01-04T00:18:10.265Z,100207.41
2024-01-04T00:20:37.402Z,100210.07
2024-01-04T00:23:05.016Z,100211.63
2024-01-04T00:25:31.879Z,100212.14
2024-01-04T00:27:58.837Z,100210.54
2024-01-04T00:30:25.895Z,100203.48
2024-01-04T00:32:53.095Z,100209.86
2024-01-04T00:35:20.146Z,100217.40
2024-01-04T00:37:47.240Z,100223.70
2024-01-04T00:40:14.347Z,100219.70
2024-01-04T00:42:41.272Z,100221.64
2024-01-04T00:45:08.662Z,100223.19
2024-01-04T00:47:35.993Z,100221.95
2024-01-04T00:50:03.595Z,100227.71
2024-01-04T00:52:30.752Z,100234.20
2024-01-04T00:54:58.796Z,100237.40
2024-01-04T00:57:25.850Z,100239.75
2024-01-04T00:59:52.850Z,100238.96
2024-01-04T01:02:19.923Z,100241.52
2024-01-04T01:04:46.793Z,100241.14
2024-01-04T01:07:14.025Z,100243.71
2024-01-04T01:09:41.071Z,100235.21
2024-01-04T01:12:08.270Z,100233.13
2024-01-04T01:14:35.419Z,100240.44
2024-01-04T01:17:02.908Z,100240.45
2024-01-04T01:19:30.185Z,100240.64
2024-01-04T01:21:57.414Z,100245.18
2024-01-04T01:24:24.383Z,100245.57
2024-01-04T01:26:51.448Z,100242.42
2024-01-04T01:29:18.451Z,100238.19
2024-01-04T01:31:45.490Z,100243.56
2024-01-04T01:34:13.193Z,100242.25
2024-01-04T01:36:41.551Z,100242.27
2024-01-04T01:39:09.608Z,100242.73
2024-01-04T01:41:36.695Z,100243.30
2024-01-04T01:44:03.808Z,100244.96
2024-01-04T01:46:30.922Z,100241.19
2024-01-04T01:48:58.208Z,100240.77
2024-01-04T01:51:25.261Z,100238.91
2024-01-04T01:53:52.350Z,100237.02
2024-01-04T01:56:20.266Z,100239.75
2024-01-04T01:58:48.623Z,100236.45
2024-01-04T02:01:15.729Z,100241.80
2024-01-04T02:03:43.132Z,100238.85
2024-01-04T02:06:10.365Z,100238.66
2024-01-04T02:08:37.581Z,100237.41
2024-01-04T02:11:04.504Z,100237.23
2024-01-04T02:13:31.464Z,100236.02
2024-01-04T02:15:58.388Z,100236.52
2024-01-04T02:18:25.588Z,100236.69
2024-01-04T02:20:53.317Z,100237.19
2024-01-04T02:23:20.754Z,100241.34
2024-01-04T02:25:47.720Z,100240.48
2024-01-04T02:28:14.780Z,100245.14
2024-01-04T02:30:41.796Z,100250.70
2024-01-04T02:33:09.922Z,100246.19
2024-01-04T02:35:37.269Z,100240.48
2024-01-04T02:38:04.689Z,100238.23
2024-01-04T02:40:31.735Z,100236.17
2024-01-04T02:42:58.674Z,100237.56
2024-01-04T02:45:25.728Z,100244.89
2024-01-04T02:47:52.746Z,100252.21
2024-01-04T02:50:20.003Z,100262.21
2024-01-04T02:52:47.215Z,100264.72
2024-01-04T02:55:14.264Z,100265.43
2024-01-04T02:57:41.680Z,100269.35
2024-01-04T03:00:09.645Z,100273.40
2024-01-04T03:02:37.547Z,100266.86
2024-01-04T03:05:05.991Z,100270.55
2024-01-04T03:07:32.959Z,100264.73
2024-01-04T03:10:00.412Z,100265.48
2024-01-04T03:12:27.174Z,100263.98
2024-01-04T03:14:54.367Z,100263.52
2024-01-04T03:17:22.092Z,100265.35
2024-01-04T03:19:49.153Z,100267.85
2024-01-04T03:22:16.157Z,100267.23
2024-01-04T03:24:43.122Z,100266.27
2024-01-04T03:27:13.082Z,100263.92
2024-01-04T03:29:40.504Z,100267.65
2024-01-04T03:32:07.650Z,100272.20
2024-01-04T03:34:35.432Z,100272.78
2024-01-04T03:37:02.843Z,100271.81
2024-01-04T03:39:29.997Z,100276.36
2024-01-04T03:41:56.819Z,100284.35
2024-01-04T03:44:23.681Z,100287.27
2024-01-04T03:46:50.848Z,100288.83
2024-01-04T03:49:18.029Z,100296.45
2024-01-04T03:51:45.031Z,100295.73
2024-01-04T03:54:12.099Z,100301.24
2024-01-04T03:56:39.285Z,100302.79
2024-01-04T03:59:06.362Z,100303.45
2024-01-04T04:01:33.391Z,100305.36
2024-01-04T04:04:00.468Z,100306.77
2024-01-04T04:06:27.526Z,100309.60
2024-01-04T04:08:54.561Z,100306.69
2024-01-04T04:11:21.669Z,100301.02
2024-01-04T04:13:48.611Z,100302.05
2024-01-04T04:16:15.440Z,100299.84
2024-01-04T04:18:42.506Z,100300.03
2024-01-04T04:21:09.591Z,100300.37
2024-01-04T04:23:37.835Z,100297.95
2024-01-04T04:26:05.978Z,100302.30
2024-01-04T04:28:33.141Z,100304.20
2024-01-04T04:31:00.176Z,100299.16
2024-01-04T04:33:27.563Z,100297.05
2024-01-04T04:36:00.946Z,100294.60
2024-01-04T04:38:29.180Z,100299.63
2024-01-04T04:40:56.224Z,100311.88
2024-01-04T04:43:23.202Z,100318.64
2024-01-04T04:45:50.159Z,100321.77
2024-01-04T04:48:17.586Z,100320.33
2024-01-04T04:50:44.661Z,100318.20
2024-01-04T04:53:11.595Z,100320.41
2024-01-04T04:55:38.554Z,100321.02
2024-01-04T04:58:05.514Z,100334.30
2024-01-04T05:00:32.551Z,100341.12
2024-01-04T05:02:59.551Z,100339.31
2024-01-04T05:05:26.652Z,100337.23
2024-01-04T05:07:53.696Z,100335.31
2024-01-04T05:10:20.725Z,100336.88
2024-01-04T05:12:48.295Z,100340.30
2024-01-04T05:15:15.360Z,100339.76
2024-01-04T05:17:42.483Z,100341.29
2024-01-04T05:20:09.946Z,100344.73
2024-01-04T05:22:36.902Z,100348.52
2024-01-04T05:25:04.563Z,100345.52
2024-01-04T05:27:31.598Z,100343.77
2024-01-04T05:29:58.462Z,100347.75
2024-01-04T05:32:25.760Z,100350.33
2024-01-04T05:34:52.735Z,100345.80
2024-01-04T05:37:19.788Z,100344.21
2024-01-04T05:39:47.442Z,100340.40
2024-01-04T05:42:14.345Z,100339.89
2024-01-04T05:44:41.653Z,100338.35
2024-01-04T05:47:08.673Z,100339.58
2024-01-04T05:49:37.262Z,100341.17
2024-01-04T05:52:04.720Z,100347.95
2024-01-04T05:54:32.379Z,100352.33
2024-01-04T05:56:59.552Z,100352.02
2024-01-04T05:59:26.469Z,100352.02
2024-01-04T06:01:53.528Z,100347.98
2024-01-04T06:04:20.412Z,100350.91
2024-01-04T06:06:50.345Z,100350.85
2024-01-04T06:09:21.447Z,100358.92
2024-01-04T06:11:48.950Z,100356.77
2024-01-04T06:14:15.923Z,100363.77
2024-01-04T06:16:42.666Z,100364.67
2024-01-04T06:19:09.767Z,100371.24
2024-01-04T06:21:37.406Z,100368.30
2024-01-04T06:24:04.831Z,100365.69
2024-01-04T06:26:31.981Z,100366.74
2024-01-04T06:28:58.940Z,100364.52
2024-01-04T06:31:25.922Z,100358.90
2024-01-04T06:33:53.158Z,100351.73
2024-01-04T06:36:20.855Z,100347.58
2024-01-04T06:38:51.158Z,100341.55
2024-01-04T06:41:20.095Z,100331.32
2024-01-04T06:43:47.143Z,100322.52
2024-01-04T06:46:17.159Z,100326.94
2024-01-04T06:48:44.938Z,100330.31
2024-01-04T06:51:14.016Z,100342.06
2024-01-04T06:53:40.997Z,100345.88
2024-01-04T06:56:07.901Z,100357.19
2024-01-04T06:58:36.295Z,100368.89
2024-01-04T07:01:03.369Z,100372.48
2024-01-04T07:03:31.237Z,100369.90
2024-01-04T07:05:58.365Z,100372.39
2024-01-04T07:08:25.287Z,100370.89
2024-01-04T07:10:52.435Z,100368.32
2024-01-04T07:13:19.487Z,100374.18
2024-01-04T07:15:46.744Z,100373.95
2024-01-04T07:18:13.863Z,100367.98
2024-01-04T07:20:42.299Z,100364.23
2024-01-04T07:23:09.316Z,100362.45
2024-01-04T07:25:37.096Z,100359.55
2024-01-04T07:28:06.033Z,100352.64
2024-01-04T07:30:32.912Z,100357.29
2024-01-04T07:33:01.282Z,100357.20
2024-01-04T07:35:28.668Z,100362.09
2024-01-04T07:37:55.805Z,100367.71
2024-01-04T07:40:22.940Z,100373.36
2024-01-04T07:42:49.783Z,100374.00
2024-01-04T07:45:16.892Z,100370.83
2024-01-04T07:47:43.942Z,100366.95
2024-01-04T07:50:12.767Z,100366.02
2024-01-04T07:52:41.243Z,100367.13
2024-01-04T07:55:08.644Z,100359.98
2024-01-04T07:57:35.569Z,100358.17
2024-01-04T08:00:04.675Z,100360.64
2024-01-04T08:02:40.296Z,100359.77
2024-01-04T08:05:09.544Z,100360.72
2024-01-04T08:07:36.933Z,100361.84
2024-01-04T08:10:04.511Z,100355.90
2024-01-04T08:12:31.448Z,100357.83
2024-01-04T08:14:58.413Z,100355.20
2024-01-04T08:17:25.971Z,100352.63
2024-01-04T08:19:53.266Z,100355.08
2024-01-04T08:22:21.883Z,100356.80
2024-01-04T08:24:48.730Z,100345.59
2024-01-04T08:27:19.611Z,100335.73
2024-01-04T08:29:49.488Z,100337.38
2024-01-04T08:32:17.648Z,100332.21
2024-01-04T08:34:44.600Z,100326.03
2024-01-04T08:37:11.743Z,100324.19
2024-01-04T08:39:38.811Z,100318.84
2024-01-04T08:42:06.988Z,100318.23
2024-01-04T08:44:33.808Z,100317.50
2024-01-04T08:47:00.862Z,100316.80
2024-01-04T08:49:28.156Z,100313.19
2024-01-04T08:51:56.484Z,100316.73
2024-01-04T08:54:24.090Z,100317.00
2024-01-04T08:56:51.213Z,100310.05
2024-01-04T08:59:18.848Z,100305.00
2024-01-04T09:01:45.686Z,100309.00
2024-01-04T09:04:13.374Z,100306.79
2024-01-04T09:06:41.219Z,100305.64
2024-01-04T09:09:08.710Z,100311.96
2024-01-04T09:11:40.993Z,100304.96
2024-01-04T09:14:12.498Z,100306.11
2024-01-04T09:16:40.258Z,100303.95
2024-01-04T09:19:07.541Z,100302.82
2024-01-04T09:21:35.080Z,100294.83
2024-01-04T09:24:02.158Z,100291.89
2024-01-04T09:26:29.578Z,100293.61
2024-01-04T09:28:57.155Z,100288.87
2024-01-04T09:31:27.847Z,100280.13
2024-01-04T09:33:57.109Z,100278.74
2024-01-04T09:36:24.537Z,100278.40
2024-01-04T09:38:51.611Z,100282.31
2024-01-04T09:41:30.198Z,100272.60
2024-01-04T09:44:06.835Z,100263.15
2024-01-04T09:46:37.701Z,100256.36
2024-01-04T09:49:06.036Z,100255.88
2024-01-04T09:51:38.868Z,100255.94
2024-01-04T09:54:10.019Z,100250.01
2024-01-04T09:56:38.472Z,100244.25
2024-01-04T09:59:05.529Z,100238.46
2024-01-04T10:01:36.625Z,100235.68
2024-01-04T10:04:14.100Z,100229.42
2024-01-04T10:06:43.878Z,100223.71
2024-01-04T10:09:27.399Z,100215.71
2024-01-04T10:12:09.364Z,100237.41
2024-01-04T10:14:36.859Z,100237.16
2024-01-04T10:17:05.019Z,100240.83
2024-01-04T10:19:33.491Z,100234.79
2024-01-04T10:22:04.190Z,100227.12
2024-01-04T10:24:39.271Z,100217.67
2024-01-04T10:27:08.044Z,100207.10
2024-01-04T10:29:36.437Z,100204.15
2024-01-04T10:32:05.027Z,100199.02
2024-01-04T10:34:34.028Z,100193.79
2024-01-04T10:37:15.270Z,100187.60
2024-01-04T10:39:46.073Z,100191.52
2024-01-04T10:42:13.646Z,100194.79
2024-01-04T10:44:40.809Z,100189.37
2024-01-04T10:47:09.932Z,100186.45
2024-01-04T10:49:39.904Z,100187.10
2024-01-04T10:52:09.972Z,100190.22
2024-01-04T10:54:36.968Z,100190.41
2024-01-04T10:57:04.514Z,100190.41
2024-01-04T10:59:33.194Z,100185.52
2024-01-04T11:02:00.853Z,100179.96
2024-01-04T11:04:31.328Z,100174.01
2024-01-04T11:06:58.820Z,100171.44
2024-01-04T11:09:26.093Z,100162.33
2024-01-04T11:11:54.421Z,100166.61
2024-01-04T11:14:22.815Z,100163.42
2024-01-04T11:17:05.730Z,100163.93
2024-01-04T11:20:09.551Z,100170.52
2024-01-04T11:22:49.993Z,100165.63
2024-01-04T11:25:51.786Z,100159.37
2024-01-04T11:28:29.551Z,100156.82
2024-01-04T11:31:04.771Z,100148.71
2024-01-04T11:33:33.380Z,100147.38
2024-01-04T11:36:02.574Z,100145.83
2024-01-04T11:38:36.385Z,100143.30
2024-01-04T11:41:04.520Z,100139.90
2024-01-04T11:43:37.593Z,100136.13
2024-01-04T11:46:19.480Z,100133.64
2024-01-04T11:48:52.607Z,100136.42
2024-01-04T11:51:50.292Z,100136.05
2024-01-04T11:54:21.617Z,100131.66
2024-01-04T11:56:50.059Z,100134.68
2024-01-04T11:59:18.565Z,100134.88
2024-01-04T12:01:45.678Z,100138.16
2024-01-04T12:04:16.700Z,100141.65
2024-01-04T12:06:46.433Z,100145.54
2024-01-04T12:09:18.248Z,100151.13
2024-01-04T12:11:55.986Z,100154.64
2024-01-04T12:14:26.100Z,100156.77
2024-01-04T12:16:53.141Z,100160.05
2024-01-04T12:19:20.769Z,100164.23
2024-01-04T12:21:48.131Z,100163.67
2024-01-04T12:24:16.654Z,100166.30
2024-01-04T12:26:43.546Z,100169.95
2024-01-04T12:29:10.624Z,100166.94
2024-01-04T12:31:39.668Z,100165.04
2024-01-04T12:34:10.986Z,100162.23
2024-01-04T12:36:38.309Z,100161.30
2024-01-04T12:39:10.253Z,100162.86
2024-01-04T12:41:40.031Z,100160.29
2024-01-04T12:44:08.288Z,100161.13
2024-01-04T12:46:36.633Z,100157.77
2024-01-04T12:49:08.298Z,100163.23
2024-01-04T12:51:39.220Z,100158.23
2024-01-04T12:54:06.919Z,100165.21
2024-01-04T12:56:37.101Z,100165.44
2024-01-04T12:59:07.717Z,100160.64
2024-01-04T13:01:35.112Z,100157.60
2024-01-04T13:04:02.438Z,100150.48
2024-01-04T13:06:30.688Z,100151.02
2024-01-04T13:08:58.440Z,100144.98
2024-01-04T13:11:25.891Z,100140.38
2024-01-04T13:13:53.313Z,100139.83
2024-01-04T13:16:20.483Z,100140.70
2024-01-04T13:18:47.903Z,100140.71
2024-01-04T13:21:15.414Z,100136.70
2024-01-04T13:23:42.994Z,100135.36
2024-01-04T13:26:10.422Z,100130.05
2024-01-04T13:28:37.829Z,100130.23
2024-01-04T13:31:05.261Z,100128.53
2024-01-04T13:33:33.712Z,100133.02
2024-01-04T13:36:01.695Z,100131.73
2024-01-04T13:38:29.219Z,100132.11
2024-01-04T13:40:56.380Z,100124.27
2024-01-04T13:43:23.939Z,100126.48
2024-01-04T13:45:54.632Z,100124.35
2024-01-04T13:48:22.000Z,100118.63
2024-01-04T13:50:49.283Z,100117.30
2024-01-04T13:53:18.955Z,100113.58
2024-01-04T13:55:48.074Z,100110.71
2024-01-04T13:58:15.304Z,100106.41
2024-01-04T14:00:42.781Z,100103.18
2024-01-04T14:03:09.707Z,100106.09
2024-01-04T14:05:40.334Z,100106.48
2024-01-04T14:08:09.844Z,100105.29
2024-01-04T14:10:38.212Z,100103.64
2024-01-04T14:13:05.260Z,100106.50
2024-01-04T14:15:32.909Z,100105.89
2024-01-04T14:18:00.007Z,100103.91
2024-01-04T14:20:29.065Z,100102.52
2024-01-04T14:22:56.227Z,100096.16
2024-01-04T14:25:23.262Z,100094.14
2024-01-04T14:27:51.007Z,100094.04
2024-01-04T14:30:18.120Z,100095.40
2024-01-04T14:32:46.930Z,100095.86
2024-01-04T14:35:15.181Z,100089.89
2024-01-04T14:37:44.736Z,100083.20
2024-01-04T14:40:17.520Z,100085.36
2024-01-04T14:42:44.931Z,100084.54
2024-01-04T14:45:16.814Z,100085.80
2024-01-04T14:47:45.463Z,100083.41
2024-01-04T14:50:13.898Z,100087.58
2024-01-04T14:52:41.152Z,100088.37
2024-01-04T14:55:10.343Z,100087.90
2024-01-04T14:57:43.541Z,100091.61
2024-01-04T15:00:12.482Z,100094.30
2024-01-04T15:02:40.248Z,100101.23
2024-01-04T15:05:07.549Z,100103.64
2024-01-04T15:07:35.229Z,100101.89
2024-01-04T15:10:02.773Z,100106.71
2024-01-04T15:12:30.955Z,100109.17
2024-01-04T15:14:57.992Z,100107.46
2024-01-04T15:17:25.418Z,100106.76
2024-01-04T15:19:52.390Z,100105.05
2024-01-04T15:22:19.664Z,100104.94
2024-01-04T15:24:47.758Z,100101.13
2024-01-04T15:27:14.788Z,100098.44
2024-01-04T15:29:42.044Z,100095.59
2024-01-04T15:32:09.974Z,100099.52
2024-01-04T15:34:37.298Z,100096.61
2024-01-04T15:37:04.833Z,100096.80
2024-01-04T15:39:32.149Z,100096.94
2024-01-04T15:42:00.051Z,100095.44
2024-01-04T15:44:27.063Z,100093.62
2024-01-04T15:46:54.205Z,100091.32
2024-01-04T15:49:22.965Z,100092.31
2024-01-04T15:51:50.242Z,100096.46
2024-01-04T15:54:17.353Z,100098.47
2024-01-04T15:56:45.215Z,100103.96
2024-01-04T15:59:12.308Z,100106.64
2024-01-04T16:01:40.640Z,100106.86
2024-01-04T16:04:08.164Z,100114.06
2024-01-04T16:06:36.444Z,100115.52
2024-01-04T16:09:04.633Z,100113.11
2024-01-04T16:11:31.658Z,100109.66
2024-01-04T16:13:58.779Z,100110.54
2024-01-04T16:16:26.772Z,100107.19
2024-01-04T16:18:54.481Z,100102.27
2024-01-04T16:21:21.832Z,100104.16
2024-01-04T16:23:49.097Z,100103.60
2024-01-04T16:26:17.903Z,100105.92
2024-01-04T16:28:45.291Z,100105.48
2024-01-04T16:31:12.343Z,100106.93
2024-01-04T16:33:39.702Z,100107.56
2024-01-04T16:36:09.925Z,100106.04
2024-01-04T16:38:37.291Z,100100.35
2024-01-04T16:41:08.692Z,100099.92
2024-01-04T16:43:35.636Z,100104.31
2024-01-04T16:46:02.982Z,100106.32
2024-01-04T16:48:30.518Z,100106.07
2024-01-04T16:50:57.784Z,100104.61
2024-01-04T16:53:25.098Z,100104.02
2024-01-04T16:55:52.737Z,100108.32
2024-01-04T16:58:19.761Z,100105.45
2024-01-04T17:00:47.130Z,100103.11
2024-01-04T17:03:14.146Z,100102.54
2024-01-04T17:05:42.283Z,100104.08
2024-01-04T17:08:09.554Z,100105.23
2024-01-04T17:10:40.537Z,100103.63
2024-01-04T17:13:11.969Z,100108.84
2024-01-04T17:15:39.150Z,100113.92
2024-01-04T17:18:06.361Z,100115.31
2024-01-04T17:20:33.584Z,100115.52
2024-01-04T17:23:03.265Z,100116.95
2024-01-04T17:25:30.534Z,100114.52
2024-01-04T17:27:57.537Z,100112.81
2024-01-04T17:30:24.748Z,100109.36
2024-01-04T17:32:53.752Z,100115.19
2024-01-04T17:35:21.638Z,100115.31
2024-01-04T17:37:48.789Z,100106.48
2024-01-04T17:40:16.125Z,100107.11
2024-01-04T17:42:44.417Z,100113.00
2024-01-04T17:45:12.037Z,100109.78
2024-01-04T17:47:40.281Z,100106.25
2024-01-04T17:50:08.887Z,100106.89
2024-01-04T17:52:36.200Z,100105.27
2024-01-04T17:55:03.745Z,100110.97
2024-01-04T17:57:31.057Z,100112.79
2024-01-04T17:59:58.499Z,100113.27
2024-01-04T18:02:26.157Z,100118.92
2024-01-04T18:04:53.323Z,100114.98
2024-01-04T18:07:21.655Z,100121.30
2024-01-04T18:09:48.713Z,100117.68
2024-01-04T18:12:15.804Z,100124.36
2024-01-04T18:14:43.125Z,100122.98
2024-01-04T18:17:10.654Z,100121.41
2024-01-04T18:19:37.657Z,100123.32
2024-01-04T18:22:04.973Z,100128.36
2024-01-04T18:24:32.544Z,100129.90
2024-01-04T18:26:59.575Z,100119.77
2024-01-04T18:29:26.750Z,100115.90
2024-01-04T18:31:53.829Z,100102.46
2024-01-04T18:34:22.764Z,100099.65
2024-01-04T18:36:50.210Z,100101.04
2024-01-04T18:39:17.425Z,100100.29
2024-01-04T18:41:44.739Z,100101.10
2024-01-04T18:44:12.880Z,100102.09
2024-01-04T18:46:39.825Z,100106.06
2024-01-04T18:49:08.013Z,100107.94
2024-01-04T18:51:35.099Z,100113.12
2024-01-04T18:54:02.543Z,100123.52
2024-01-04T18:56:29.966Z,100126.27
2024-01-04T18:58:57.239Z,100122.05
2024-01-04T19:01:24.336Z,100122.71
2024-01-04T19:03:51.647Z,100122.83
2024-01-04T19:06:19.148Z,100122.44
2024-01-04T19:08:46.284Z,100120.84
2024-01-04T19:11:13.470Z,100125.35
2024-01-04T19:13:40.661Z,100129.82
2024-01-04T19:16:10.461Z,100128.95
2024-01-04T19:18:38.510Z,100126.80
2024-01-04T19:21:06.771Z,100129.23
2024-01-04T19:23:33.619Z,100129.71
2024-01-04T19:26:00.678Z,100131.77
2024-01-04T19:28:27.820Z,100129.49
2024-01-04T19:30:55.064Z,100132.48
2024-01-04T19:33:22.328Z,100134.95
2024-01-04T19:35:49.548Z,100131.13
2024-01-04T19:38:16.457Z,100130.66
2024-01-04T19:40:44.381Z,100129.58
2024-01-04T19:43:11.529Z,100123.70
2024-01-04T19:45:39.107Z,100120.20
2024-01-04T19:48:07.107Z,100117.59
2024-01-04T19:50:34.306Z,100118.46
2024-01-04T19:53:01.367Z,100120.77
2024-01-04T19:55:28.621Z,100119.39
2024-01-04T19:57:56.283Z,100120.84
2024-01-04T20:00:23.521Z,100116.02
2024-01-04T20:02:50.540Z,100111.36
2024-01-04T20:05:17.679Z,100115.97
2024-01-04T20:07:44.621Z,100120.38
2024-01-04T20:10:11.707Z,100124.30
2024-01-04T20:12:38.851Z,100125.69
2024-01-04T20:15:06.431Z,100129.02
2024-01-04T20:17:34.286Z,100134.46
2024-01-04T20:20:01.715Z,100132.74
2024-01-04T20:22:29.136Z,100133.48
2024-01-04T20:24:56.658Z,100131.58
2024-01-04T20:27:26.319Z,100131.43
2024-01-04T20:29:53.656Z,100135.73
2024-01-04T20:32:20.770Z,100136.96
2024-01-04T20:34:47.911Z,100143.11
2024-01-04T20:37:15.158Z,100147.50
2024-01-04T20:39:42.327Z,100149.42
2024-01-04T20:42:09.705Z,100150.82
2024-01-04T20:44:36.916Z,100151.88
2024-01-04T20:47:04.396Z,100154.52
2024-01-04T20:49:31.733Z,100158.70
2024-01-04T20:51:59.052Z,100161.17
2024-01-04T20:54:26.291Z,100161.20
2024-01-04T20:56:54.143Z,100161.40
2024-01-04T20:59:21.256Z,100162.45
2024-01-04T21:01:48.410Z,100160.55
2024-01-04T21:04:15.811Z,100162.48
2024-01-04T21:06:46.327Z,100163.34
2024-01-04T21:09:19.635Z,100159.84
2024-01-04T21:11:51.864Z,100161.38
2024-01-04T21:14:19.822Z,100166.92
2024-01-04T21:16:47.574Z,100178.44
2024-01-04T21:19:14.672Z,100185.57
2024-01-04T21:21:43.880Z,100187.12
2024-01-04T21:24:14.043Z,100192.35
2024-01-04T21:26:41.481Z,100191.10
2024-01-04T21:29:08.643Z,100187.96
2024-01-04T21:31:36.259Z,100181.50
2024-01-04T21:34:03.430Z,100175.04
2024-01-04T21:36:30.798Z,100172.21
2024-01-04T21:38:57.936Z,100170.64
2024-01-04T21:41:25.105Z,100164.35
2024-01-04T21:43:52.162Z,100162.45
2024-01-04T21:46:19.441Z,100161.11
2024-01-04T21:48:47.037Z,100166.01
2024-01-04T21:51:21.305Z,100172.32
2024-01-04T21:53:49.450Z,100168.52
2024-01-04T21:56:26.135Z,100167.31
2024-01-04T21:58:53.897Z,100175.17
2024-01-04T22:01:25.032Z,100172.92
2024-01-04T22:03:52.656Z,100172.42
2024-01-04T22:06:21.090Z,100170.67
2024-01-04T22:08:48.068Z,100171.54
2024-01-04T22:11:15.293Z,100175.73
2024-01-04T22:13:42.422Z,100175.25
2024-01-04T22:16:09.364Z,100177.53
2024-01-04T22:18:36.871Z,100173.59
2024-01-04T22:21:03.990Z,100173.11
2024-01-04T22:23:31.754Z,100172.95
2024-01-04T22:25:58.594Z,100174.23
2024-01-04T22:28:25.627Z,100173.55
2024-01-04T22:30:53.191Z,100179.19
2024-01-04T22:33:20.310Z,100184.80
2024-01-04T22:35:49.375Z,100183.26
2024-01-04T22:38:16.383Z,100187.64
2024-01-04T22:40:43.316Z,100192.05
2024-01-04T22:43:10.158Z,100194.73
2024-01-04T22:45:37.982Z,100197.52
2024-01-04T22:48:06.126Z,100200.01
2024-01-04T22:50:33.142Z,100203.03
2024-01-04T22:53:00.471Z,100196.29
2024-01-04T22:55:27.454Z,100204.70
2024-01-04T22:57:54.405Z,100204.22
2024-01-04T23:00:23.076Z,100207.87
2024-01-04T23:02:51.582Z,100209.32
2024-01-04T23:05:18.934Z,100208.89
2024-01-04T23:07:45.947Z,100208.21
2024-01-04T23:10:12.875Z,100211.23
2024-01-04T23:12:40.042Z,100215.30
2024-01-04T23:15:07.535Z,100218.73
2024-01-04T23:17:34.968Z,100222.15
2024-01-04T23:20:07.305Z,100223.16
2024-01-04T23:22:34.917Z,100220.75
2024-01-04T23:25:03.594Z,100221.60
2024-01-04T23:27:31.184Z,100227.28
2024-01-04T23:29:58.189Z,100231.20
2024-01-04T23:32:25.185Z,100236.05
2024-01-04T23:34:52.887Z,100237.14
2024-01-04T23:37:20.152Z,100238.01
2024-01-04T23:39:47.084Z,100243.24
2024-01-04T23:42:14.467Z,100245.63
2024-01-04T23:44:41.484Z,100253.98
2024-01-04T23:47:08.322Z,100263.25
2024-01-04T23:49:35.359Z,100264.98
2024-01-04T23:52:02.388Z,100266.03
2024-01-04T23:54:29.442Z,100269.52
2024-01-04T23:56:56.476Z,100271.46
2024-01-04T23:59:23.453Z,100275.30
